Terminal Aerodrome Forecast
Issued by NWS Blacksburg, VA

Home | Current Version | Previous Version | Text Only | Print | Product List | Glossary On
Versions: 1 2 3 4 5 6 7 8 9 10 11 12 13 14 15 16 17 18 19 20 21 22 23 24 25 26 27 28 29
000
FTUS41 KRNK 122114 AAA
TAFROA
TAF AMD
KROA 122114Z 1221/1318 14005KT P6SM OVC040
      TEMPO 1221/1224 5SM -SHSN OVC015
     FM130400 30018G35KT P6SM -SHSN BKN035
     FM130800 30022G42KT P6SM BKN040
     FM131400 29015G28KT P6SM SCT035=

USA.gov is the U.S. government's official web portal to all federal, state and local government web resources and services.